ANA762 ROAH-RJOO
Flight info
| Callsign | ANA762 |
|---|---|
| Flight time | 1h 32m |
| Altitude | 39000 |
| Route | AMAMI Y53 MADOG Y753 IZUMI |
| Aircraft | B789/H-SDE1E2E3FGHIJ2J3J4J5M1RWXY/LB1D1 |
Departure
| Time | 2026-05-04 16:58 |
|---|---|
| Airport | Naha International Airport (ROAH) |
Arrival
| Time | 2026-05-04 18:30 |
|---|---|
| Airport | Osaka Itami International Airport (RJOO) |
| Time | Latitude | Longitude | Altitude | Speed | Heading |
|---|---|---|---|---|---|
| 2026-05-04 16:22 | 26.20700 | 127.64914 | 26 ft | 0 kts | 28° |
| 2026-05-04 16:47 | 26.20693 | 127.64909 | 26 ft | 4 kts | 51° |
| 2026-05-04 16:48 | 26.20642 | 127.64905 | 32 ft | 4 kts | 296° |
| 2026-05-04 16:48 | 26.20636 | 127.64931 | 25 ft | 4 kts | 268° |
| 2026-05-04 16:49 | 26.20638 | 127.64971 | 25 ft | 0 kts | 268° |
| 2026-05-04 16:51 | 26.20635 | 127.64897 | 29 ft | 10 kts | 267° |
| 2026-05-04 16:52 | 26.20568 | 127.64746 | 25 ft | 13 kts | 178° |
| 2026-05-04 16:52 | 26.20474 | 127.64752 | 26 ft | 14 kts | 178° |
| 2026-05-04 16:53 | 26.20293 | 127.64760 | 25 ft | 17 kts | 177° |
| 2026-05-04 16:53 | 26.19885 | 127.64780 | 25 ft | 22 kts | 178° |
| 2026-05-04 16:54 | 26.19728 | 127.64787 | 25 ft | 23 kts | 177° |
| 2026-05-04 16:55 | 26.19019 | 127.64820 | 25 ft | 27 kts | 179° |
| 2026-05-04 16:55 | 26.18625 | 127.64839 | 25 ft | 29 kts | 177° |
| 2026-05-04 16:56 | 26.18257 | 127.64828 | 24 ft | 13 kts | 228° |
| 2026-05-04 16:56 | 26.18310 | 127.64648 | 24 ft | 7 kts | 358° |
| 2026-05-04 16:57 | 26.18371 | 127.64645 | 25 ft | 28 kts | 358° |
| 2026-05-04 16:57 | 26.19872 | 127.64576 | 223 ft | 164 kts | 4° |
| 2026-05-04 16:58 | 26.23354 | 127.64369 | 1836 ft | 183 kts | 355° |
| 2026-05-04 16:58 | 26.24660 | 127.64216 | 2217 ft | 195 kts | 353° |
| 2026-05-04 16:59 | 26.27271 | 127.63147 | 3051 ft | 213 kts | 329° |
| 2026-05-04 17:00 | 26.32934 | 127.59659 | 4685 ft | 257 kts | 327° |
| 2026-05-04 17:00 | 26.37654 | 127.56603 | 6882 ft | 270 kts | 330° |
| 2026-05-04 17:01 | 26.40496 | 127.54012 | 8096 ft | 267 kts | 293° |
| 2026-05-04 17:01 | 26.40962 | 127.50102 | 9762 ft | 252 kts | 255° |
| 2026-05-04 17:02 | 26.38891 | 127.46719 | 10395 ft | 287 kts | 227° |
| 2026-05-04 17:02 | 26.36155 | 127.43178 | 11150 ft | 315 kts | 229° |
| 2026-05-04 17:03 | 26.34316 | 127.41759 | 11681 ft | 327 kts | 211° |
| 2026-05-04 17:03 | 26.32117 | 127.40979 | 12312 ft | 340 kts | 193° |
| 2026-05-04 17:03 | 26.27303 | 127.40921 | 13718 ft | 351 kts | 184° |
| 2026-05-04 17:04 | 26.22374 | 127.40999 | 14915 ft | 358 kts | 185° |
| 2026-05-04 17:04 | 26.17334 | 127.41260 | 15976 ft | 375 kts | 172° |
| 2026-05-04 17:05 | 26.12633 | 127.44063 | 17131 ft | 400 kts | 143° |
| 2026-05-04 17:05 | 26.09658 | 127.49459 | 18203 ft | 426 kts | 109° |
| 2026-05-04 17:06 | 26.09569 | 127.56105 | 19142 ft | 440 kts | 81° |
| 2026-05-04 17:06 | 26.10240 | 127.59445 | 19606 ft | 444 kts | 77° |
| 2026-05-04 17:07 | 26.11633 | 127.66198 | 20482 ft | 451 kts | 81° |
| 2026-05-04 17:07 | 26.11995 | 127.68483 | 20780 ft | 454 kts | 81° |
| 2026-05-04 17:07 | 26.12787 | 127.73124 | 21349 ft | 459 kts | 79° |
| 2026-05-04 17:07 | 26.13465 | 127.76618 | 21735 ft | 464 kts | 79° |
| 2026-05-04 17:08 | 26.14131 | 127.80149 | 22152 ft | 468 kts | 80° |
| 2026-05-04 17:08 | 26.15390 | 127.87312 | 22954 ft | 475 kts | 80° |
| 2026-05-04 17:08 | 26.16225 | 127.90884 | 23268 ft | 481 kts | 70° |
| 2026-05-04 17:09 | 26.17733 | 127.94208 | 23651 ft | 483 kts | 56° |
| 2026-05-04 17:09 | 26.19830 | 127.97119 | 23986 ft | 482 kts | 42° |
| 2026-05-04 17:09 | 26.22398 | 127.99473 | 24335 ft | 477 kts | 29° |
| 2026-05-04 17:10 | 26.28081 | 128.03287 | 25028 ft | 479 kts | 26° |
| 2026-05-04 17:10 | 26.36719 | 128.09155 | 25963 ft | 488 kts | 26° |
| 2026-05-04 17:11 | 26.39623 | 128.11112 | 26295 ft | 490 kts | 26° |
| 2026-05-04 17:11 | 26.42556 | 128.13092 | 26630 ft | 493 kts | 26° |
| 2026-05-04 17:11 | 26.48432 | 128.17090 | 27329 ft | 498 kts | 25° |
| 2026-05-04 17:12 | 26.51401 | 128.19104 | 27597 ft | 501 kts | 25° |
| 2026-05-04 17:12 | 26.57392 | 128.23174 | 28299 ft | 506 kts | 25° |
| 2026-05-04 17:13 | 26.66455 | 128.29371 | 29314 ft | 515 kts | 27° |
| 2026-05-04 17:14 | 26.74006 | 128.38352 | 30264 ft | 539 kts | 49° |
| 2026-05-04 17:14 | 26.76284 | 128.41689 | 30545 ft | 541 kts | 48° |
| 2026-05-04 17:14 | 26.81047 | 128.48249 | 31143 ft | 546 kts | 47° |
| 2026-05-04 17:15 | 26.83416 | 128.51593 | 31449 ft | 549 kts | 48° |
| 2026-05-04 17:15 | 26.88134 | 128.58330 | 31953 ft | 557 kts | 47° |
| 2026-05-04 17:16 | 26.93228 | 128.64849 | 32500 ft | 554 kts | 36° |
| 2026-05-04 17:16 | 27.03016 | 128.71399 | 33535 ft | 545 kts | 20° |
| 2026-05-04 17:17 | 27.06329 | 128.73399 | 33786 ft | 550 kts | 21° |
| 2026-05-04 17:17 | 27.16445 | 128.79582 | 34831 ft | 552 kts | 20° |
| 2026-05-04 17:18 | 27.19833 | 128.81624 | 35213 ft | 552 kts | 21° |
| 2026-05-04 17:18 | 27.26587 | 128.85763 | 35924 ft | 554 kts | 21° |
| 2026-05-04 17:19 | 27.33367 | 128.89882 | 36610 ft | 554 kts | 21° |
| 2026-05-04 17:19 | 27.40127 | 128.94018 | 37390 ft | 552 kts | 21° |
| 2026-05-04 17:20 | 27.46883 | 128.98143 | 38061 ft | 553 kts | 21° |
| 2026-05-04 17:20 | 27.53648 | 129.02287 | 38732 ft | 553 kts | 22° |
| 2026-05-04 17:20 | 27.57077 | 129.04391 | 38994 ft | 554 kts | 22° |
| 2026-05-04 17:21 | 27.63820 | 129.08523 | 39135 ft | 556 kts | 22° |
| 2026-05-04 17:21 | 27.70615 | 129.12705 | 39124 ft | 550 kts | 21° |
| 2026-05-04 17:22 | 27.77243 | 129.16778 | 39132 ft | 545 kts | 21° |
| 2026-05-04 17:23 | 27.90676 | 129.25062 | 39145 ft | 553 kts | 22° |
| 2026-05-04 17:24 | 28.00791 | 129.31312 | 39144 ft | 552 kts | 22° |
| 2026-05-04 17:25 | 28.14280 | 129.39672 | 39141 ft | 553 kts | 22° |
| 2026-05-04 17:26 | 28.27760 | 129.48049 | 39142 ft | 553 kts | 22° |
| 2026-05-04 17:27 | 28.44574 | 129.58559 | 39107 ft | 547 kts | 24° |
| 2026-05-04 17:27 | 28.51058 | 129.63287 | 39139 ft | 559 kts | 26° |
| 2026-05-04 17:28 | 28.57604 | 129.68079 | 39135 ft | 557 kts | 25° |
| 2026-05-04 17:29 | 28.77002 | 129.82294 | 39134 ft | 553 kts | 25° |
| 2026-05-04 17:31 | 28.93192 | 129.94214 | 39137 ft | 555 kts | 24° |
| 2026-05-04 17:32 | 29.09309 | 130.06122 | 39165 ft | 553 kts | 24° |
| 2026-05-04 17:33 | 29.22200 | 130.15680 | 39143 ft | 551 kts | 24° |
| 2026-05-04 17:34 | 29.35092 | 130.25270 | 39141 ft | 553 kts | 23° |
| 2026-05-04 17:35 | 29.51210 | 130.37306 | 39138 ft | 553 kts | 24° |
| 2026-05-04 17:36 | 29.57649 | 130.42128 | 39142 ft | 553 kts | 24° |
| 2026-05-04 17:36 | 29.64108 | 130.46971 | 39140 ft | 555 kts | 24° |
| 2026-05-04 17:37 | 29.69480 | 130.51006 | 39141 ft | 554 kts | 24° |
| 2026-05-04 17:37 | 29.75928 | 130.55855 | 39143 ft | 555 kts | 24° |
| 2026-05-04 17:38 | 29.82405 | 130.60732 | 39139 ft | 558 kts | 24° |
| 2026-05-04 17:38 | 29.88896 | 130.65632 | 39140 ft | 557 kts | 24° |
| 2026-05-04 17:39 | 29.98621 | 130.72979 | 39148 ft | 560 kts | 24° |
| 2026-05-04 17:39 | 30.05158 | 130.77935 | 39152 ft | 562 kts | 24° |
| 2026-05-04 17:40 | 30.11687 | 130.82892 | 39149 ft | 562 kts | 24° |
| 2026-05-04 17:40 | 30.18240 | 130.87869 | 39150 ft | 566 kts | 24° |
| 2026-05-04 17:41 | 30.24803 | 130.92877 | 39143 ft | 563 kts | 24° |
| 2026-05-04 17:41 | 30.31346 | 130.97860 | 39147 ft | 564 kts | 24° |
| 2026-05-04 17:42 | 30.37901 | 131.02872 | 39145 ft | 565 kts | 24° |
| 2026-05-04 17:42 | 30.44472 | 131.07900 | 39145 ft | 566 kts | 24° |
| 2026-05-04 17:43 | 30.51050 | 131.12944 | 39142 ft | 567 kts | 24° |
| 2026-05-04 17:43 | 30.57612 | 131.18006 | 39125 ft | 565 kts | 24° |
| 2026-05-04 17:44 | 30.64159 | 131.23041 | 39131 ft | 566 kts | 24° |
| 2026-05-04 17:44 | 30.70732 | 131.28123 | 39140 ft | 567 kts | 24° |
| 2026-05-04 17:45 | 30.77305 | 131.33203 | 39145 ft | 567 kts | 24° |
| 2026-05-04 17:45 | 30.83832 | 131.38260 | 39139 ft | 568 kts | 25° |
| 2026-05-04 17:46 | 30.90415 | 131.43369 | 39139 ft | 568 kts | 25° |
| 2026-05-04 17:46 | 30.96995 | 131.48481 | 39137 ft | 569 kts | 25° |
| 2026-05-04 17:47 | 31.03580 | 131.53610 | 39146 ft | 569 kts | 25° |
| 2026-05-04 17:47 | 31.10145 | 131.58730 | 39131 ft | 568 kts | 25° |
| 2026-05-04 17:48 | 31.16716 | 131.63863 | 39127 ft | 567 kts | 25° |
| 2026-05-04 17:48 | 31.23266 | 131.68988 | 39126 ft | 566 kts | 25° |
| 2026-05-04 17:49 | 31.29829 | 131.74129 | 39141 ft | 570 kts | 25° |
| 2026-05-04 17:49 | 31.36408 | 131.79293 | 39130 ft | 569 kts | 25° |
| 2026-05-04 17:50 | 31.42981 | 131.84452 | 39170 ft | 569 kts | 25° |
| 2026-05-04 17:50 | 31.49583 | 131.89646 | 39143 ft | 571 kts | 25° |
| 2026-05-04 17:51 | 31.56176 | 131.94845 | 39130 ft | 571 kts | 25° |
| 2026-05-04 17:51 | 31.62767 | 132.00046 | 39126 ft | 571 kts | 25° |
| 2026-05-04 17:52 | 31.69353 | 132.05259 | 39127 ft | 570 kts | 25° |
| 2026-05-04 17:52 | 31.75933 | 132.10468 | 39132 ft | 572 kts | 25° |
| 2026-05-04 17:53 | 31.82521 | 132.15699 | 39134 ft | 572 kts | 25° |
| 2026-05-04 17:53 | 31.89109 | 132.20936 | 39157 ft | 571 kts | 25° |
| 2026-05-04 17:54 | 31.95689 | 132.26176 | 39133 ft | 571 kts | 25° |
| 2026-05-04 17:54 | 32.02277 | 132.31433 | 39130 ft | 571 kts | 25° |
| 2026-05-04 17:55 | 32.08855 | 132.36709 | 39137 ft | 575 kts | 27° |
| 2026-05-04 17:55 | 32.11921 | 132.39807 | 39123 ft | 587 kts | 39° |
| 2026-05-04 17:55 | 32.14559 | 132.43517 | 39126 ft | 595 kts | 50° |
| 2026-05-04 17:56 | 32.18959 | 132.51841 | 39143 ft | 600 kts | 55° |
| 2026-05-04 17:56 | 32.23370 | 132.60205 | 39141 ft | 599 kts | 54° |
| 2026-05-04 17:57 | 32.27766 | 132.68566 | 39132 ft | 598 kts | 55° |
| 2026-05-04 17:57 | 32.32141 | 132.76936 | 39132 ft | 599 kts | 54° |
| 2026-05-04 17:58 | 32.36536 | 132.85317 | 39134 ft | 601 kts | 55° |
| 2026-05-04 17:58 | 32.40915 | 132.93737 | 39170 ft | 602 kts | 55° |
| 2026-05-04 17:59 | 32.45309 | 133.02159 | 39109 ft | 600 kts | 55° |
| 2026-05-04 18:00 | 32.51863 | 133.14795 | 39130 ft | 601 kts | 55° |
| 2026-05-04 18:00 | 32.56240 | 133.23252 | 39108 ft | 601 kts | 55° |
| 2026-05-04 18:01 | 32.60595 | 133.31687 | 39116 ft | 599 kts | 55° |
| 2026-05-04 18:01 | 32.64941 | 133.40119 | 39129 ft | 600 kts | 55° |
| 2026-05-04 18:02 | 32.71328 | 133.52915 | 39113 ft | 601 kts | 57° |
| 2026-05-04 18:02 | 32.75611 | 133.61443 | 39110 ft | 602 kts | 56° |
| 2026-05-04 18:03 | 32.79829 | 133.69954 | 39119 ft | 602 kts | 57° |
| 2026-05-04 18:03 | 32.84120 | 133.78594 | 39123 ft | 604 kts | 57° |
| 2026-05-04 18:04 | 32.88377 | 133.87190 | 39122 ft | 601 kts | 57° |
| 2026-05-04 18:05 | 32.94705 | 134.00006 | 39124 ft | 603 kts | 57° |
| 2026-05-04 18:05 | 32.98938 | 134.08619 | 39113 ft | 602 kts | 57° |
| 2026-05-04 18:06 | 33.05359 | 134.21457 | 39109 ft | 601 kts | 50° |
| 2026-05-04 18:06 | 33.08031 | 134.25250 | 39109 ft | 591 kts | 39° |
| 2026-05-04 18:06 | 33.11061 | 134.28490 | 39080 ft | 580 kts | 33° |
| 2026-05-04 18:07 | 33.14167 | 134.31559 | 38275 ft | 580 kts | 32° |
| 2026-05-04 18:07 | 33.17275 | 134.34638 | 37470 ft | 582 kts | 34° |
| 2026-05-04 18:07 | 33.20340 | 134.37818 | 36633 ft | 584 kts | 35° |
| 2026-05-04 18:07 | 33.23389 | 134.41018 | 35830 ft | 583 kts | 35° |
| 2026-05-04 18:08 | 33.26471 | 134.44163 | 34998 ft | 582 kts | 34° |
| 2026-05-04 18:08 | 33.29569 | 134.47279 | 34271 ft | 582 kts | 34° |
| 2026-05-04 18:08 | 33.32642 | 134.50424 | 33385 ft | 582 kts | 35° |
| 2026-05-04 18:08 | 33.35688 | 134.53595 | 32550 ft | 579 kts | 36° |
| 2026-05-04 18:09 | 33.41758 | 134.59832 | 30999 ft | 567 kts | 35° |
| 2026-05-04 18:09 | 33.47423 | 134.65685 | 29410 ft | 512 kts | 36° |
| 2026-05-04 18:10 | 33.50144 | 134.68485 | 28713 ft | 521 kts | 35° |
| 2026-05-04 18:10 | 33.52899 | 134.71309 | 28015 ft | 520 kts | 35° |
| 2026-05-04 18:10 | 33.55630 | 134.74137 | 27380 ft | 518 kts | 35° |
| 2026-05-04 18:10 | 33.58341 | 134.76949 | 26686 ft | 514 kts | 34° |
| 2026-05-04 18:11 | 33.61232 | 134.79384 | 25986 ft | 501 kts | 24° |
| 2026-05-04 18:11 | 33.64161 | 134.81504 | 25346 ft | 497 kts | 24° |
| 2026-05-04 18:11 | 33.67153 | 134.83677 | 24691 ft | 494 kts | 24° |
| 2026-05-04 18:11 | 33.70064 | 134.85836 | 24053 ft | 490 kts | 25° |
| 2026-05-04 18:12 | 33.72950 | 134.87985 | 23365 ft | 486 kts | 24° |
| 2026-05-04 18:12 | 33.75809 | 134.90092 | 22660 ft | 480 kts | 24° |
| 2026-05-04 18:12 | 33.78605 | 134.92145 | 22007 ft | 473 kts | 25° |
| 2026-05-04 18:12 | 33.81384 | 134.94199 | 21378 ft | 465 kts | 25° |
| 2026-05-04 18:13 | 33.84108 | 134.96221 | 20782 ft | 457 kts | 26° |
| 2026-05-04 18:13 | 33.86794 | 134.98211 | 20191 ft | 449 kts | 26° |
| 2026-05-04 18:13 | 33.92026 | 135.02085 | 19043 ft | 433 kts | 26° |
| 2026-05-04 18:14 | 33.94568 | 135.03970 | 18489 ft | 426 kts | 27° |
| 2026-05-04 18:14 | 33.97070 | 135.05830 | 17877 ft | 418 kts | 27° |
| 2026-05-04 18:14 | 33.99520 | 135.07652 | 17303 ft | 410 kts | 27° |
| 2026-05-04 18:15 | 34.04269 | 135.11183 | 16250 ft | 393 kts | 27° |
| 2026-05-04 18:15 | 34.08822 | 135.14575 | 15242 ft | 376 kts | 27° |
| 2026-05-04 18:15 | 34.11025 | 135.16216 | 14772 ft | 369 kts | 27° |
| 2026-05-04 18:16 | 34.13187 | 135.17829 | 14304 ft | 362 kts | 27° |
| 2026-05-04 18:16 | 34.15304 | 135.19410 | 13831 ft | 354 kts | 26° |
| 2026-05-04 18:16 | 34.17379 | 135.20960 | 13345 ft | 347 kts | 26° |
| 2026-05-04 18:17 | 34.21388 | 135.23955 | 12434 ft | 332 kts | 26° |
| 2026-05-04 18:17 | 34.23299 | 135.25530 | 12013 ft | 332 kts | 30° |
| 2026-05-04 18:17 | 34.27131 | 135.28600 | 11116 ft | 326 kts | 28° |
| 2026-05-04 18:18 | 34.28995 | 135.30121 | 10727 ft | 318 kts | 29° |
| 2026-05-04 18:18 | 34.30769 | 135.31594 | 10579 ft | 302 kts | 29° |
| 2026-05-04 18:18 | 34.32469 | 135.32991 | 10427 ft | 288 kts | 28° |
| 2026-05-04 18:18 | 34.34095 | 135.34315 | 10275 ft | 275 kts | 28° |
| 2026-05-04 18:19 | 34.37163 | 135.36823 | 9708 ft | 265 kts | 28° |
| 2026-05-04 18:19 | 34.38676 | 135.38060 | 9439 ft | 266 kts | 28° |
| 2026-05-04 18:19 | 34.40202 | 135.39312 | 9186 ft | 262 kts | 28° |
| 2026-05-04 18:20 | 34.41719 | 135.40560 | 8918 ft | 259 kts | 28° |
| 2026-05-04 18:20 | 34.43213 | 135.41785 | 8666 ft | 261 kts | 29° |
| 2026-05-04 18:20 | 34.44498 | 135.43325 | 8324 ft | 271 kts | 51° |
| 2026-05-04 18:20 | 34.45421 | 135.45318 | 8122 ft | 266 kts | 55° |
| 2026-05-04 18:21 | 34.46319 | 135.47288 | 7945 ft | 267 kts | 56° |
| 2026-05-04 18:21 | 34.47210 | 135.49232 | 7800 ft | 267 kts | 55° |
| 2026-05-04 18:21 | 34.48114 | 135.51193 | 7639 ft | 262 kts | 55° |
| 2026-05-04 18:21 | 34.49002 | 135.53120 | 7401 ft | 270 kts | 55° |
| 2026-05-04 18:22 | 34.49908 | 135.55089 | 7084 ft | 262 kts | 56° |
| 2026-05-04 18:22 | 34.50764 | 135.56965 | 6776 ft | 250 kts | 56° |
| 2026-05-04 18:22 | 34.51633 | 135.58847 | 6518 ft | 262 kts | 56° |
| 2026-05-04 18:22 | 34.52497 | 135.60729 | 6220 ft | 253 kts | 56° |
| 2026-05-04 18:23 | 34.53363 | 135.62615 | 5947 ft | 258 kts | 56° |
| 2026-05-04 18:23 | 34.53999 | 135.63794 | 5711 ft | 248 kts | 45° |
| 2026-05-04 18:23 | 34.55381 | 135.64990 | 5389 ft | 243 kts | 22° |
| 2026-05-04 18:23 | 34.57010 | 135.65421 | 5088 ft | 240 kts | 0° |
| 2026-05-04 18:24 | 34.58669 | 135.65428 | 4904 ft | 239 kts | 358° |
| 2026-05-04 18:24 | 34.60287 | 135.65110 | 4613 ft | 236 kts | 336° |
| 2026-05-04 18:24 | 34.61622 | 135.64049 | 4420 ft | 231 kts | 323° |
| 2026-05-04 18:24 | 34.62770 | 135.62734 | 4099 ft | 220 kts | 316° |
| 2026-05-04 18:25 | 34.63789 | 135.61468 | 3823 ft | 199 kts | 316° |
| 2026-05-04 18:25 | 34.64723 | 135.60326 | 3553 ft | 183 kts | 317° |
| 2026-05-04 18:25 | 34.65585 | 135.59277 | 3297 ft | 169 kts | 317° |
| 2026-05-04 18:25 | 34.66386 | 135.58300 | 3074 ft | 158 kts | 318° |
| 2026-05-04 18:26 | 34.67143 | 135.57395 | 2851 ft | 147 kts | 318° |
| 2026-05-04 18:26 | 34.67839 | 135.56546 | 2649 ft | 136 kts | 318° |
| 2026-05-04 18:26 | 34.68493 | 135.55751 | 2474 ft | 130 kts | 318° |
| 2026-05-04 18:26 | 34.69134 | 135.54985 | 2316 ft | 130 kts | 318° |
| 2026-05-04 18:27 | 34.69782 | 135.54200 | 2144 ft | 133 kts | 317° |
| 2026-05-04 18:27 | 34.70437 | 135.53405 | 1943 ft | 133 kts | 317° |
| 2026-05-04 18:27 | 34.71099 | 135.52602 | 1762 ft | 135 kts | 317° |
| 2026-05-04 18:27 | 34.71765 | 135.51795 | 1582 ft | 135 kts | 317° |
| 2026-05-04 18:28 | 34.72430 | 135.50989 | 1392 ft | 135 kts | 317° |
| 2026-05-04 18:28 | 34.73096 | 135.50181 | 1215 ft | 135 kts | 317° |
| 2026-05-04 18:28 | 34.73766 | 135.49367 | 1025 ft | 137 kts | 316° |
| 2026-05-04 18:28 | 34.74439 | 135.48549 | 824 ft | 136 kts | 315° |
| 2026-05-04 18:29 | 34.75107 | 135.47732 | 643 ft | 136 kts | 316° |
| 2026-05-04 18:29 | 34.75776 | 135.46928 | 464 ft | 135 kts | 317° |
| 2026-05-04 18:29 | 34.76431 | 135.46130 | 293 ft | 132 kts | 316° |
| 2026-05-04 18:29 | 34.77082 | 135.45348 | 123 ft | 131 kts | 317° |
| 2026-05-04 18:30 | 34.78210 | 135.43984 | 53 ft | 90 kts | 314° |
| 2026-05-04 18:30 | 34.78596 | 135.43519 | 49 ft | 56 kts | 315° |
| 2026-05-04 18:30 | 34.78784 | 135.43291 | 50 ft | 35 kts | 315° |
| 2026-05-04 18:31 | 34.78953 | 135.43086 | 49 ft | 34 kts | 315° |
| 2026-05-04 18:31 | 34.79098 | 135.42928 | 47 ft | 14 kts | 339° |
| 2026-05-04 18:31 | 34.79173 | 135.42911 | 49 ft | 6 kts | 359° |
| 2026-05-04 18:31 | 34.79209 | 135.42906 | 48 ft | 5 kts | 349° |
| 2026-05-04 18:32 | 34.79240 | 135.42902 | 47 ft | 3 kts | 4° |
| 2026-05-04 18:32 | 34.79266 | 135.42915 | 48 ft | 6 kts | 34° |
| 2026-05-04 18:32 | 34.79295 | 135.42963 | 46 ft | 6 kts | 75° |
| 2026-05-04 18:32 | 34.79297 | 135.43017 | 51 ft | 8 kts | 88° |
| 2026-05-04 18:33 | 34.79322 | 135.43078 | 52 ft | 9 kts | 46° |
| 2026-05-04 18:33 | 34.79371 | 135.43139 | 46 ft | 11 kts | 46° |
| 2026-05-04 18:33 | 34.79393 | 135.43193 | 51 ft | 4 kts | 98° |
| 2026-05-04 18:33 | 34.79371 | 135.43237 | 51 ft | 8 kts | 133° |
| 2026-05-04 18:34 | 34.79327 | 135.43291 | 50 ft | 10 kts | 134° |
| 2026-05-04 18:34 | 34.79272 | 135.43359 | 48 ft | 13 kts | 135° |
| 2026-05-04 18:34 | 34.79249 | 135.43386 | 48 ft | 13 kts | 135° |
| 2026-05-04 18:35 | 34.79212 | 135.43432 | 50 ft | 15 kts | 135° |
| 2026-05-04 18:35 | 34.79133 | 135.43528 | 48 ft | 17 kts | 135° |
| 2026-05-04 18:35 | 34.79043 | 135.43637 | 50 ft | 19 kts | 135° |
| 2026-05-04 18:35 | 34.78950 | 135.43749 | 48 ft | 18 kts | 135° |
| 2026-05-04 18:36 | 34.78916 | 135.43791 | 48 ft | 3 kts | 134° |
| 2026-05-04 18:36 | 34.78896 | 135.43817 | 48 ft | 6 kts | 129° |
| 2026-05-04 18:36 | 34.78882 | 135.43864 | 49 ft | 6 kts | 93° |
| 2026-05-04 18:36 | 34.78894 | 135.43917 | 47 ft | 7 kts | 63° |
| 2026-05-04 18:37 | 34.78896 | 135.43943 | 51 ft | 3 kts | 112° |
| 2026-05-04 18:37 | 34.78872 | 135.43971 | 47 ft | 9 kts | 137° |
| 2026-05-04 18:37 | 34.78823 | 135.44030 | 50 ft | 10 kts | 135° |
| 2026-05-04 18:37 | 34.78775 | 135.44099 | 49 ft | 8 kts | 104° |
| 2026-05-04 18:38 | 34.78792 | 135.44138 | 47 ft | 4 kts | 29° |
| 2026-05-04 18:38 | 34.78816 | 135.44141 | 52 ft | 4 kts | 356° |
| 2026-05-04 18:38 | 34.78834 | 135.44145 | 50 ft | 1 kts | 28° |
| 2026-05-04 18:38 | 34.78840 | 135.44152 | 51 ft | 1 kts | 40° |
| 2026-05-04 18:39 | 34.78843 | 135.44155 | 51 ft | 0 kts | 43° |